createdAt,value
2017-06-13T00:00:27.741Z,1009.79
2017-06-13T00:01:29.005Z,1009.8
2017-06-13T00:02:30.335Z,1009.81
2017-06-13T00:03:31.586Z,1009.85
2017-06-13T00:04:32.852Z,1009.85
2017-06-13T00:05:34.124Z,1009.82
2017-06-13T00:06:35.362Z,1009.82
2017-06-13T00:07:36.690Z,1009.91
2017-06-13T00:08:37.985Z,1009.92
2017-06-13T00:09:39.244Z,1009.87
2017-06-13T00:10:40.491Z,1009.93
2017-06-13T00:11:41.841Z,1009.93
2017-06-13T00:12:43.094Z,1009.93
2017-06-13T00:13:44.367Z,1009.94
2017-06-13T00:14:45.632Z,1009.9
2017-06-13T00:15:46.886Z,1009.83
2017-06-13T00:16:48.165Z,1009.85
2017-06-13T00:17:49.406Z,1009.85
2017-06-13T00:18:50.771Z,1009.84
2017-06-13T00:19:52.041Z,1009.86
2017-06-13T00:20:53.286Z,1009.87
2017-06-13T00:21:54.608Z,1009.87
2017-06-13T00:22:55.890Z,1009.91
2017-06-13T00:23:57.117Z,1009.89
2017-06-13T00:24:58.395Z,1009.93
2017-06-13T00:25:59.636Z,1009.91
2017-06-13T00:27:00.906Z,1009.89
2017-06-13T00:28:02.170Z,1009.87
2017-06-13T00:29:03.545Z,1009.86
2017-06-13T00:30:04.811Z,1009.85
2017-06-13T00:31:06.052Z,1009.87
2017-06-13T00:32:07.312Z,1009.86
2017-06-13T00:33:08.582Z,1009.85
2017-06-13T00:34:09.939Z,1009.87
2017-06-13T00:35:11.228Z,1009.83
2017-06-13T00:36:12.479Z,1009.87
2017-06-13T00:37:13.722Z,1009.88
2017-06-13T00:38:15.033Z,1009.89
2017-06-13T00:39:16.324Z,1009.91
2017-06-13T00:40:17.583Z,1009.9
2017-06-13T00:41:18.826Z,1009.9
2017-06-13T00:42:20.073Z,1009.9
2017-06-13T00:43:21.320Z,1009.9
2017-06-13T00:44:22.569Z,1009.88
2017-06-13T00:45:23.908Z,1009.87
2017-06-13T00:46:25.163Z,1009.9
2017-06-13T00:47:26.397Z,1009.92
2017-06-13T00:48:27.668Z,1009.86
2017-06-13T00:49:28.896Z,1009.94
2017-06-13T00:50:30.208Z,1009.85
2017-06-13T00:51:31.405Z,1009.84
2017-06-13T00:52:32.731Z,1009.84
2017-06-13T00:53:33.932Z,1009.83
2017-06-13T00:54:35.175Z,1009.89
2017-06-13T00:55:36.413Z,1009.85
2017-06-13T00:56:37.673Z,1009.88
2017-06-13T00:57:38.931Z,1009.84
2017-06-13T00:58:40.219Z,1009.88
2017-06-13T00:59:41.456Z,1009.92
2017-06-13T01:00:42.715Z,1009.92
2017-06-13T01:01:43.958Z,1009.89
2017-06-13T01:02:45.209Z,1009.9
2017-06-13T01:03:46.461Z,1009.89
2017-06-13T01:04:47.798Z,1009.88
2017-06-13T01:05:49.023Z,1009.88
2017-06-13T01:06:50.259Z,1009.84
2017-06-13T01:07:51.505Z,1009.82
2017-06-13T01:08:52.768Z,1009.8
2017-06-13T01:09:54.096Z,1009.83
2017-06-13T01:10:55.383Z,1009.84
2017-06-13T01:11:56.603Z,1009.8
2017-06-13T01:12:57.934Z,1009.79
2017-06-13T01:13:59.215Z,1009.83
2017-06-13T01:15:00.461Z,1009.81
2017-06-13T01:16:01.692Z,1009.82
2017-06-13T01:17:02.961Z,1009.84
2017-06-13T01:18:04.229Z,1009.86
2017-06-13T01:19:05.481Z,1009.88
2017-06-13T01:20:06.721Z,1009.87
2017-06-13T01:21:07.958Z,1009.9
2017-06-13T01:22:09.210Z,1009.87
2017-06-13T01:23:10.520Z,1009.86
2017-06-13T01:24:11.758Z,1009.88
2017-06-13T01:25:12.994Z,1009.88
2017-06-13T01:26:14.284Z,1009.87
2017-06-13T01:27:15.531Z,1009.86
2017-06-13T01:28:16.819Z,1009.89
2017-06-13T01:29:18.052Z,1009.82
2017-06-13T01:30:19.362Z,1009.83
2017-06-13T01:31:20.602Z,1009.84
2017-06-13T01:32:21.856Z,1009.86
2017-06-13T01:33:23.159Z,1009.84
2017-06-13T01:34:24.406Z,1009.82
2017-06-13T01:35:25.707Z,1009.87
2017-06-13T01:36:27.002Z,1009.85
2017-06-13T01:37:28.371Z,1009.83
2017-06-13T01:38:29.590Z,1009.9
2017-06-13T01:39:30.845Z,1009.85
2017-06-13T01:40:32.093Z,1009.84
2017-06-13T01:41:33.332Z,1009.87
2017-06-13T01:42:34.634Z,1009.92
2017-06-13T01:43:35.903Z,1009.91
2017-06-13T01:44:37.148Z,1009.92
2017-06-13T01:45:38.417Z,1009.92
2017-06-13T01:46:39.647Z,1009.89
2017-06-13T01:47:40.886Z,1009.92
2017-06-13T01:48:42.156Z,1009.92
2017-06-13T01:49:43.493Z,1009.94
2017-06-13T01:50:44.734Z,1009.92
2017-06-13T01:51:45.979Z,1009.89
2017-06-13T01:52:47.246Z,1009.87
2017-06-13T01:53:48.481Z,1009.89
2017-06-13T01:54:49.732Z,1009.87
2017-06-13T01:55:50.989Z,1009.83
2017-06-13T01:56:52.219Z,1009.8
2017-06-13T01:57:53.507Z,1009.84
2017-06-13T01:58:54.824Z,1009.83
2017-06-13T01:59:56.047Z,1009.82
2017-06-13T02:00:57.297Z,1009.84
2017-06-13T02:01:58.613Z,1009.82
2017-06-13T02:02:59.852Z,1009.82
2017-06-13T02:04:01.110Z,1009.86
2017-06-13T02:05:02.330Z,1009.87
2017-06-13T02:06:03.572Z,1009.86
2017-06-13T02:07:04.820Z,1009.88
2017-06-13T02:08:06.117Z,1009.89
2017-06-13T02:09:07.373Z,1009.86
2017-06-13T02:10:08.642Z,1009.86
2017-06-13T02:11:09.925Z,1009.88
2017-06-13T02:12:11.154Z,1009.87
2017-06-13T02:13:12.418Z,1009.85
2017-06-13T02:14:13.731Z,1009.88
2017-06-13T02:15:14.983Z,1009.87
2017-06-13T02:16:16.225Z,1009.89
2017-06-13T02:17:17.463Z,1009.92
2017-06-13T02:18:18.740Z,1009.96
2017-06-13T02:19:19.968Z,1009.93
2017-06-13T02:20:21.216Z,1009.93
2017-06-13T02:21:22.611Z,1009.93
2017-06-13T02:22:23.849Z,1009.93
2017-06-13T02:23:25.117Z,1009.93
2017-06-13T02:24:26.363Z,1009.94
2017-06-13T02:25:27.629Z,1009.9
2017-06-13T02:26:28.883Z,1009.9
2017-06-13T02:27:30.221Z,1009.89
2017-06-13T02:28:31.421Z,1009.96
2017-06-13T02:29:32.663Z,1009.92
2017-06-13T02:30:33.908Z,1009.93
2017-06-13T02:31:35.199Z,1009.94
2017-06-13T02:32:36.512Z,1009.89
2017-06-13T02:33:37.797Z,1009.86
2017-06-13T02:34:39.038Z,1009.91
2017-06-13T02:35:40.302Z,1009.92
2017-06-13T02:36:41.520Z,1009.91
2017-06-13T02:37:42.771Z,1009.88
2017-06-13T02:38:44.024Z,1009.9
2017-06-13T02:39:45.273Z,1009.9
2017-06-13T02:40:46.505Z,1009.91
2017-06-13T02:41:47.736Z,1009.85
2017-06-13T02:42:48.999Z,1009.86
2017-06-13T02:43:50.236Z,1009.83
2017-06-13T02:44:51.480Z,1009.85
2017-06-13T02:45:52.776Z,1009.84
2017-06-13T02:46:54.078Z,1009.78
2017-06-13T02:47:55.272Z,1009.81
2017-06-13T02:48:56.522Z,1009.81
2017-06-13T02:49:57.761Z,1009.85
2017-06-13T02:50:59.035Z,1009.8
2017-06-13T02:52:00.342Z,1009.87
2017-06-13T02:53:01.594Z,1009.9
2017-06-13T02:54:02.838Z,1009.88
2017-06-13T02:55:04.083Z,1009.89
2017-06-13T02:56:05.327Z,1009.84
2017-06-13T02:57:06.609Z,1009.86
2017-06-13T02:58:07.894Z,1009.9
2017-06-13T02:59:09.190Z,1009.82
2017-06-13T03:00:10.493Z,1009.85
2017-06-13T03:01:11.845Z,1009.83
2017-06-13T03:02:13.107Z,1009.85
2017-06-13T03:03:14.331Z,1009.86
2017-06-13T03:04:15.578Z,1009.83
2017-06-13T03:05:16.845Z,1009.79
2017-06-13T03:06:18.084Z,1009.8
2017-06-13T03:07:19.348Z,1009.76
2017-06-13T03:08:20.587Z,1009.78
2017-06-13T03:09:21.825Z,1009.76
2017-06-13T03:10:23.074Z,1009.76
2017-06-13T03:11:24.375Z,1009.77
2017-06-13T03:12:25.962Z,1009.74
2017-06-13T03:13:27.205Z,1009.75
2017-06-13T03:14:28.449Z,1009.75
2017-06-13T03:15:29.704Z,1009.76
2017-06-13T03:16:30.991Z,1009.75
2017-06-13T03:17:32.287Z,1009.81
2017-06-13T03:18:33.578Z,1009.8
2017-06-13T03:19:34.819Z,1009.84
2017-06-13T03:20:36.058Z,1009.79
2017-06-13T03:21:37.295Z,1009.84
2017-06-13T03:22:38.625Z,1009.84
2017-06-13T03:23:39.902Z,1009.88
2017-06-13T03:24:41.120Z,1009.88
2017-06-13T03:25:42.362Z,1009.89
2017-06-13T03:26:43.623Z,1009.9
2017-06-13T03:27:44.875Z,1009.87
2017-06-13T03:28:46.107Z,1009.91
2017-06-13T03:29:47.354Z,1009.91
2017-06-13T03:30:48.614Z,1009.9
2017-06-13T03:31:49.874Z,1009.87
2017-06-13T03:32:51.111Z,1009.88
2017-06-13T03:33:52.472Z,1009.89
2017-06-13T03:34:53.736Z,1009.93
2017-06-13T03:35:54.998Z,1009.9
2017-06-13T03:36:56.299Z,1009.92
2017-06-13T03:37:57.526Z,1010
2017-06-13T03:38:58.777Z,1009.99
2017-06-13T03:40:00.084Z,1009.97
2017-06-13T03:41:01.255Z,1009.99
2017-06-13T03:42:02.618Z,1009.99
2017-06-13T03:43:03.864Z,1009.96
2017-06-13T03:44:05.122Z,1009.96
2017-06-13T03:45:06.367Z,1009.94
2017-06-13T03:46:07.604Z,1010.01
2017-06-13T03:47:08.853Z,1009.99
2017-06-13T03:48:10.139Z,1010
2017-06-13T03:49:11.415Z,1009.99
2017-06-13T03:50:12.663Z,1009.98
2017-06-13T03:51:13.923Z,1009.98
2017-06-13T03:52:15.138Z,1010.04
2017-06-13T03:53:16.405Z,1010.06
2017-06-13T03:54:17.658Z,1010.03
2017-06-13T03:55:18.904Z,1010.04
2017-06-13T03:56:20.170Z,1010.03
2017-06-13T03:57:21.420Z,1010.02
2017-06-13T03:58:22.656Z,1010.03
2017-06-13T03:59:23.933Z,1010.05
2017-06-13T04:00:25.180Z,1010.05
2017-06-13T04:01:26.496Z,1010.12
2017-06-13T04:02:27.850Z,1010.08
2017-06-13T04:03:29.088Z,1010.09
2017-06-13T04:04:30.347Z,1010.11
2017-06-13T04:05:31.583Z,1010.13
2017-06-13T04:06:32.825Z,1010.14
2017-06-13T04:07:34.068Z,1010.17
2017-06-13T04:08:35.317Z,1010.19
2017-06-13T04:09:36.562Z,1010.19
2017-06-13T04:10:37.801Z,1010.19
2017-06-13T04:11:39.054Z,1010.23
2017-06-13T04:12:40.391Z,1010.23
2017-06-13T04:13:41.740Z,1010.23
2017-06-13T04:14:42.918Z,1010.25
2017-06-13T04:15:44.170Z,1010.24
2017-06-13T04:16:45.411Z,1010.28
2017-06-13T04:17:46.797Z,1010.29
2017-06-13T04:18:48.107Z,1010.32
2017-06-13T04:19:49.372Z,1010.34
2017-06-13T04:20:50.625Z,1010.33
2017-06-13T04:21:51.948Z,1010.31
2017-06-13T04:22:53.202Z,1010.36
2017-06-13T04:23:54.464Z,1010.39
2017-06-13T04:24:55.720Z,1010.38
2017-06-13T04:25:56.942Z,1010.4
2017-06-13T04:26:58.209Z,1010.43
2017-06-13T04:27:59.450Z,1010.4
2017-06-13T04:29:00.697Z,1010.36
2017-06-13T04:30:01.936Z,1010.38
2017-06-13T04:31:03.185Z,1010.39
2017-06-13T04:32:04.514Z,1010.42
2017-06-13T04:33:05.771Z,1010.45
2017-06-13T04:34:07.016Z,1010.45
2017-06-13T04:35:08.255Z,1010.45
2017-06-13T04:36:09.522Z,1010.44
2017-06-13T04:37:10.810Z,1010.46
2017-06-13T04:38:12.065Z,1010.41
2017-06-13T04:39:13.332Z,1010.39
2017-06-13T04:40:14.571Z,1010.41
2017-06-13T04:41:15.818Z,1010.38
2017-06-13T04:42:17.155Z,1010.33
2017-06-13T04:43:18.516Z,1010.28
2017-06-13T04:44:19.771Z,1010.35
2017-06-13T04:45:21.038Z,1010.3
2017-06-13T04:46:22.279Z,1010.36
2017-06-13T04:47:23.510Z,1010.33
2017-06-13T04:48:24.753Z,1010.39
2017-06-13T04:49:26.052Z,1010.34
2017-06-13T04:50:27.297Z,1010.39
2017-06-13T04:51:28.538Z,1010.37
2017-06-13T04:52:29.788Z,1010.41
2017-06-13T04:53:31.026Z,1010.41
2017-06-13T04:54:32.285Z,1010.4
2017-06-13T04:55:33.523Z,1010.39
2017-06-13T04:56:34.802Z,1010.42
2017-06-13T04:57:36.032Z,1010.43
2017-06-13T04:58:37.279Z,1010.44
2017-06-13T04:59:38.518Z,1010.46
2017-06-13T05:00:39.761Z,1010.43
2017-06-13T05:01:41.008Z,1010.46
2017-06-13T05:02:42.356Z,1010.44
2017-06-13T05:03:43.618Z,1010.49
2017-06-13T05:04:44.871Z,1010.51
2017-06-13T05:05:46.124Z,1010.52
2017-06-13T05:06:47.387Z,1010.5
2017-06-13T05:07:48.618Z,1010.54
2017-06-13T05:08:49.917Z,1010.57
2017-06-13T05:09:51.150Z,1010.61
2017-06-13T05:10:52.514Z,1010.64
2017-06-13T05:11:53.760Z,1010.53
2017-06-13T05:12:55.007Z,1010.49
2017-06-13T05:13:56.273Z,1010.49
2017-06-13T05:14:57.518Z,1010.48
2017-06-13T05:15:58.792Z,1010.5
2017-06-13T05:17:00.010Z,1010.48
2017-06-13T05:18:01.256Z,1010.6
2017-06-13T05:19:02.487Z,1010.57
2017-06-13T05:20:03.733Z,1010.6
2017-06-13T05:21:05.086Z,1010.62
2017-06-13T05:22:06.465Z,1010.63
2017-06-13T05:23:07.712Z,1010.58
2017-06-13T05:24:08.953Z,1010.62
2017-06-13T05:25:10.218Z,1010.51
2017-06-13T05:26:11.442Z,1010.6
2017-06-13T05:27:12.795Z,1010.64
2017-06-13T05:28:14.087Z,1010.65
2017-06-13T05:29:15.314Z,1010.71
2017-06-13T05:30:16.551Z,1010.65
2017-06-13T05:31:17.802Z,1010.68
2017-06-13T05:32:19.105Z,1010.71
2017-06-13T05:33:20.420Z,1010.71
2017-06-13T05:34:21.671Z,1010.73
2017-06-13T05:35:22.910Z,1010.67
2017-06-13T05:36:24.259Z,1010.78
2017-06-13T05:37:25.460Z,1010.79
2017-06-13T05:38:26.831Z,1010.86
2017-06-13T05:39:28.088Z,1010.91
2017-06-13T05:40:29.354Z,1010.97
2017-06-13T05:41:30.578Z,1010.87
2017-06-13T05:42:31.835Z,1010.7
2017-06-13T05:43:33.094Z,1010.94
2017-06-13T05:44:34.365Z,1010.97
2017-06-13T05:45:35.642Z,1010.75
2017-06-13T05:46:36.910Z,1011.01
2017-06-13T05:47:38.120Z,1010.95
2017-06-13T05:48:39.390Z,1010.87
2017-06-13T05:49:40.643Z,1010.81
2017-06-13T05:50:41.871Z,1010.89
2017-06-13T05:51:43.285Z,1010.89
2017-06-13T05:52:44.576Z,1010.95
2017-06-13T05:53:45.837Z,1010.96
2017-06-13T05:54:47.085Z,1010.76
2017-06-13T05:55:48.343Z,1010.72
2017-06-13T05:56:49.590Z,1010.92
2017-06-13T05:57:50.839Z,1010.71
2017-06-13T05:58:52.098Z,1010.68
2017-06-13T05:59:53.525Z,1010.79
2017-06-13T06:00:54.666Z,1010.79
2017-06-13T06:01:55.965Z,1010.95
2017-06-13T06:02:57.264Z,1010.86
2017-06-13T06:03:58.523Z,1010.94
2017-06-13T06:04:59.786Z,1010.97
2017-06-13T06:06:01.146Z,1010.93
2017-06-13T06:07:02.401Z,1011.01
2017-06-13T06:08:03.631Z,1011
2017-06-13T06:09:05.020Z,1010.86
2017-06-13T06:10:06.287Z,1010.65
2017-06-13T06:11:07.562Z,1010.91
2017-06-13T06:12:08.808Z,1010.72
2017-06-13T06:13:10.106Z,1011.12
2017-06-13T06:14:11.355Z,1011.16
2017-06-13T06:15:12.602Z,1011.21
2017-06-13T06:16:13.869Z,1011.2
2017-06-13T06:17:15.133Z,1011.18
2017-06-13T06:18:16.469Z,1011.18
2017-06-13T06:19:17.744Z,1011.15
2017-06-13T06:20:19.020Z,1011.19
2017-06-13T06:21:20.316Z,1011.16
2017-06-13T06:22:21.599Z,1011.2
2017-06-13T06:23:22.910Z,1011.23
2017-06-13T06:24:24.175Z,1011.26
2017-06-13T06:25:25.426Z,1011.27
2017-06-13T06:26:26.683Z,1011.28
2017-06-13T06:27:27.938Z,1011.28
2017-06-13T06:28:29.256Z,1010.9
2017-06-13T06:29:30.582Z,1010.98
2017-06-13T06:30:31.832Z,1011.32
2017-06-13T06:31:33.085Z,1011.52
2017-06-13T06:32:34.339Z,1011.48
2017-06-13T06:33:35.575Z,1011.49
2017-06-13T06:34:37.064Z,1011.15
2017-06-13T06:35:38.325Z,1011.28
2017-06-13T06:36:39.560Z,1011.56
2017-06-13T06:37:40.814Z,1011.5
2017-06-13T06:38:42.065Z,1011.57
2017-06-13T06:39:43.314Z,1011.53
2017-06-13T06:40:44.638Z,1010.99
2017-06-13T06:41:45.908Z,1011.58
2017-06-13T06:42:47.148Z,1011.65
2017-06-13T06:43:48.396Z,1011.63
2017-06-13T06:44:49.668Z,1011.59
2017-06-13T06:45:50.916Z,1010.9
2017-06-13T06:46:52.185Z,1011.7
2017-06-13T06:47:53.435Z,1010.99
2017-06-13T06:48:54.692Z,1011.74
2017-06-13T06:49:56.003Z,1011.41
2017-06-13T06:50:57.232Z,1011.01
2017-06-13T06:51:58.482Z,1011.72
2017-06-13T06:52:59.876Z,1011.64
2017-06-13T06:54:01.011Z,1011.07
2017-06-13T06:55:02.336Z,1011.84
2017-06-13T06:56:03.597Z,1011.19
2017-06-13T06:57:04.940Z,1011.07
2017-06-13T06:58:06.201Z,1011.08
2017-06-13T06:59:07.458Z,1011.02
2017-06-13T07:00:08.778Z,1011.11
2017-06-13T07:01:10.039Z,1011.13
2017-06-13T07:02:11.271Z,1011.8
2017-06-13T07:03:12.529Z,1011.17
2017-06-13T07:04:13.779Z,1011.16
2017-06-13T07:05:15.118Z,1011.25
2017-06-13T07:06:16.369Z,1011.23
2017-06-13T07:07:17.616Z,1011.41
2017-06-13T07:08:18.866Z,1011.44
2017-06-13T07:09:20.124Z,1011.2
2017-06-13T07:10:21.461Z,1011.26
2017-06-13T07:11:22.735Z,1012.07
2017-06-13T07:12:24.087Z,1011.25
2017-06-13T07:13:25.335Z,1011.11
2017-06-13T07:14:26.581Z,1012.07
2017-06-13T07:15:27.840Z,1011.87
2017-06-13T07:16:29.097Z,1011.19
2017-06-13T07:17:30.441Z,1011.95
2017-06-13T07:18:31.684Z,1011.65
2017-06-13T07:19:32.936Z,1011.2
2017-06-13T07:20:34.204Z,1011.28
2017-06-13T07:21:35.460Z,1011.28
2017-06-13T07:22:36.714Z,1011.5
2017-06-13T07:23:37.994Z,1011.45
2017-06-13T07:24:39.250Z,1011.55
2017-06-13T07:25:40.501Z,1011.92
2017-06-13T07:26:41.750Z,1011.19
2017-06-13T07:27:43.015Z,1011.31
2017-06-13T07:28:44.336Z,1012.26
2017-06-13T07:29:45.529Z,1011.19
2017-06-13T07:30:46.834Z,1011.41
2017-06-13T07:31:48.105Z,1012.72
2017-06-13T07:32:49.352Z,1012.7
2017-06-13T07:33:50.603Z,1012.73
2017-06-13T07:34:51.854Z,1011.64
2017-06-13T07:35:53.181Z,1011.31
2017-06-13T07:36:54.544Z,1011.25
2017-06-13T07:37:55.787Z,1011.2
2017-06-13T07:38:57.048Z,1011.25
2017-06-13T07:39:58.337Z,1011.17
2017-06-13T07:40:59.588Z,1011.23
2017-06-13T07:42:00.873Z,1011.24
2017-06-13T07:43:02.142Z,1011.17
2017-06-13T07:44:03.425Z,1011.16
2017-06-13T07:45:04.690Z,1011.2
2017-06-13T07:46:05.931Z,1011.13
2017-06-13T07:47:07.210Z,1011.25
2017-06-13T07:48:08.510Z,1011.25
2017-06-13T07:49:09.765Z,1011.19
2017-06-13T07:50:11.063Z,1011.24
2017-06-13T07:51:12.311Z,1011.24
2017-06-13T07:52:13.565Z,1011.29
2017-06-13T07:53:14.905Z,1011.4
2017-06-13T07:54:16.158Z,1011.22
2017-06-13T07:55:17.441Z,1011.29
2017-06-13T07:56:18.714Z,1012.96
2017-06-13T07:57:19.941Z,1012.76
2017-06-13T07:58:21.189Z,1011.56
2017-06-13T07:59:22.471Z,1011.21
2017-06-13T08:00:23.866Z,1011.14
2017-06-13T08:01:25.006Z,1011.09
2017-06-13T08:02:26.302Z,1011.11
2017-06-13T08:03:27.527Z,1011.12
2017-06-13T08:04:28.774Z,1011.16
2017-06-13T08:05:30.027Z,1011.09
2017-06-13T08:06:31.280Z,1011.12
2017-06-13T08:07:32.692Z,1011.15
2017-06-13T08:08:33.950Z,1011.16
2017-06-13T08:09:35.207Z,1011.11
2017-06-13T08:10:36.495Z,1011.19
2017-06-13T08:11:37.718Z,1011.21
2017-06-13T08:12:38.980Z,1011.24
2017-06-13T08:13:40.229Z,1011.26
2017-06-13T08:14:41.472Z,1011.22
2017-06-13T08:15:42.758Z,1011.27
2017-06-13T08:16:44.001Z,1011.33
2017-06-13T08:17:45.253Z,1011.28
2017-06-13T08:18:46.673Z,1011.35
2017-06-13T08:19:48.005Z,1011.34
2017-06-13T08:20:49.261Z,1011.38
2017-06-13T08:21:50.517Z,1011.37
2017-06-13T08:22:51.768Z,1011.47
2017-06-13T08:23:53.017Z,1011.59
2017-06-13T08:24:54.325Z,1011.66
2017-06-13T08:25:55.611Z,1011.75
2017-06-13T08:26:56.882Z,1011.64
2017-06-13T08:27:58.168Z,1011.68
2017-06-13T08:28:59.408Z,1012.42
2017-06-13T08:30:00.685Z,1011.96
2017-06-13T08:31:02.042Z,1011.63
2017-06-13T08:32:03.295Z,1011.63
2017-06-13T08:33:04.555Z,1012.19
2017-06-13T08:34:05.794Z,1011.81
2017-06-13T08:35:07.158Z,1011.63
2017-06-13T08:36:08.477Z,1011.63
2017-06-13T08:37:09.745Z,1011.5
2017-06-13T08:38:10.981Z,1011.32
2017-06-13T08:39:12.251Z,1011.25
2017-06-13T08:40:13.502Z,1011.26
2017-06-13T08:41:14.764Z,1011.23
2017-06-13T08:42:16.032Z,1011.27
2017-06-13T08:43:17.287Z,1011.22
2017-06-13T08:44:18.627Z,1011.22
2017-06-13T08:45:19.907Z,1011.25
2017-06-13T08:46:21.166Z,1011.26
2017-06-13T08:47:22.519Z,1011.29
2017-06-13T08:48:23.748Z,1011.28
2017-06-13T08:49:24.997Z,1011.29
2017-06-13T08:50:26.244Z,1011.34
2017-06-13T08:51:27.491Z,1011.31
2017-06-13T08:52:28.751Z,1011.31
2017-06-13T08:53:30.022Z,1011.35
2017-06-13T08:54:31.378Z,1011.35
2017-06-13T08:55:32.651Z,1011.38
2017-06-13T08:56:34.006Z,1011.39
2017-06-13T08:57:35.253Z,1011.41
2017-06-13T08:58:36.516Z,1011.44
2017-06-13T08:59:37.787Z,1011.44
2017-06-13T09:00:39.181Z,1011.39
2017-06-13T09:01:40.424Z,1011.38
2017-06-13T09:02:41.708Z,1011.39
2017-06-13T09:03:42.942Z,1011.36
2017-06-13T09:04:44.204Z,1011.32
2017-06-13T09:05:45.477Z,1011.37
2017-06-13T09:06:46.731Z,1011.41
2017-06-13T09:07:47.993Z,1011.49
2017-06-13T09:08:49.228Z,1011.48
2017-06-13T09:09:50.476Z,1011.6
2017-06-13T09:10:51.745Z,1011.68
2017-06-13T09:11:53.066Z,1011.45
2017-06-13T09:12:54.493Z,1011.51
2017-06-13T09:13:55.800Z,1011.65
2017-06-13T09:14:57.057Z,1011.66
2017-06-13T09:15:58.292Z,1012.47
2017-06-13T09:16:59.547Z,1011.65
2017-06-13T09:18:00.908Z,1011.61
2017-06-13T09:19:02.212Z,1011.41
2017-06-13T09:20:03.454Z,1011.41
2017-06-13T09:21:04.704Z,1011.38
2017-06-13T09:22:05.955Z,1011.39
2017-06-13T09:23:07.215Z,1011.43
2017-06-13T09:24:08.474Z,1011.45
2017-06-13T09:25:09.806Z,1011.46
2017-06-13T09:26:11.063Z,1011.56
2017-06-13T09:27:12.311Z,1011.66
2017-06-13T09:28:13.558Z,1011.59
2017-06-13T09:29:14.826Z,1011.55
2017-06-13T09:30:16.158Z,1011.62
2017-06-13T09:31:17.421Z,1011.58
2017-06-13T09:32:18.682Z,1011.65
2017-06-13T09:33:19.902Z,1011.97
2017-06-13T09:34:21.182Z,1011.72
2017-06-13T09:35:22.456Z,1011.64
2017-06-13T09:36:23.693Z,1011.65
2017-06-13T09:37:25.002Z,1011.67
2017-06-13T09:38:26.238Z,1011.67
2017-06-13T09:39:27.492Z,1011.66
2017-06-13T09:40:28.766Z,1011.69
2017-06-13T09:41:29.994Z,1011.71
2017-06-13T09:42:31.274Z,1011.61
2017-06-13T09:43:32.532Z,1011.6
2017-06-13T09:44:33.810Z,1011.61
2017-06-13T09:45:35.083Z,1011.67
2017-06-13T09:46:36.330Z,1011.65
2017-06-13T09:47:37.590Z,1011.73
2017-06-13T09:48:38.839Z,1011.82
2017-06-13T09:49:40.207Z,1012.06
2017-06-13T09:50:41.431Z,1013.44
2017-06-13T09:51:42.710Z,1012.69
2017-06-13T09:52:43.949Z,1011.86
2017-06-13T09:53:45.216Z,1011.84
2017-06-13T09:54:46.510Z,1011.82
2017-06-13T09:55:47.713Z,1012.07
2017-06-13T09:56:48.971Z,1011.81
2017-06-13T09:57:50.224Z,1011.69
2017-06-13T09:58:51.459Z,1011.67
2017-06-13T09:59:52.714Z,1011.72
2017-06-13T10:00:53.962Z,1011.82
2017-06-13T10:01:55.262Z,1014.74
2017-06-13T10:02:56.543Z,1012.24
2017-06-13T10:03:57.808Z,1011.68
2017-06-13T10:04:59.069Z,1011.6
2017-06-13T10:06:00.316Z,1011.54
2017-06-13T10:07:01.583Z,1011.51
2017-06-13T10:08:02.853Z,1011.53
2017-06-13T10:09:04.103Z,1011.57
2017-06-13T10:10:05.362Z,1011.54
2017-06-13T10:11:06.629Z,1011.45
2017-06-13T10:12:07.868Z,1011.44
2017-06-13T10:13:09.165Z,1011.37
2017-06-13T10:14:10.497Z,1011.37
2017-06-13T10:15:11.836Z,1011.36
2017-06-13T10:16:13.103Z,1011.49
2017-06-13T10:17:14.350Z,1011.45
2017-06-13T10:18:15.640Z,1011.53
2017-06-13T10:19:16.878Z,1011.58
2017-06-13T10:20:18.223Z,1011.64
2017-06-13T10:21:19.421Z,1011.65
2017-06-13T10:22:20.739Z,1011.64
2017-06-13T10:23:21.969Z,1011.56
2017-06-13T10:24:23.226Z,1011.75
2017-06-13T10:25:24.509Z,1011.7
2017-06-13T10:26:25.762Z,1011.57
2017-06-13T10:27:27.032Z,1011.48
2017-06-13T10:28:28.287Z,1011.46
2017-06-13T10:29:29.551Z,1011.36
2017-06-13T10:30:30.827Z,1011.41
2017-06-13T10:31:32.072Z,1011.38
2017-06-13T10:32:33.337Z,1011.38
2017-06-13T10:33:34.604Z,1011.4
2017-06-13T10:34:35.876Z,1011.38
2017-06-13T10:35:37.130Z,1011.4
2017-06-13T10:36:38.383Z,1011.41
2017-06-13T10:37:39.644Z,1011.45
2017-06-13T10:38:40.893Z,1011.4
2017-06-13T10:39:42.151Z,1011.38
2017-06-13T10:40:43.393Z,1011.43
2017-06-13T10:41:44.660Z,1011.43
2017-06-13T10:42:45.929Z,1011.42
2017-06-13T10:43:47.166Z,1011.43
2017-06-13T10:44:48.507Z,1011.45
2017-06-13T10:45:49.771Z,1011.46
2017-06-13T10:46:51.035Z,1011.49
2017-06-13T10:47:52.291Z,1011.52
2017-06-13T10:48:53.553Z,1011.51
2017-06-13T10:49:54.801Z,1011.5
2017-06-13T10:50:56.112Z,1011.49
2017-06-13T10:51:57.380Z,1011.51
2017-06-13T10:52:58.731Z,1011.58
2017-06-13T10:53:59.979Z,1011.62
2017-06-13T10:55:01.234Z,1011.57
2017-06-13T10:56:02.480Z,1011.62
2017-06-13T10:57:03.737Z,1011.62
2017-06-13T10:58:05.067Z,1011.66
2017-06-13T10:59:06.316Z,1011.72
2017-06-13T11:00:07.571Z,1011.71
2017-06-13T11:01:08.834Z,1011.6
2017-06-13T11:02:10.088Z,1011.59
2017-06-13T11:03:11.332Z,1011.61
2017-06-13T11:04:12.724Z,1011.57
2017-06-13T11:05:14.012Z,1011.52
2017-06-13T11:06:15.285Z,1011.53
2017-06-13T11:07:16.516Z,1011.53
2017-06-13T11:08:17.745Z,1011.56
2017-06-13T11:09:19.151Z,1011.54
2017-06-13T11:10:20.437Z,1011.52
2017-06-13T11:11:21.694Z,1011.55
2017-06-13T11:12:22.947Z,1011.63
2017-06-13T11:13:24.192Z,1011.59
2017-06-13T11:14:25.465Z,1011.61
2017-06-13T11:15:26.824Z,1011.61
2017-06-13T11:16:28.073Z,1011.68
2017-06-13T11:17:29.314Z,1011.67
2017-06-13T11:18:30.583Z,1011.71
2017-06-13T11:19:31.837Z,1011.71
2017-06-13T11:20:33.135Z,1011.77
2017-06-13T11:21:34.384Z,1011.77
2017-06-13T11:22:35.646Z,1011.77
2017-06-13T11:23:36.937Z,1011.78
2017-06-13T11:24:38.204Z,1011.82
2017-06-13T11:25:39.438Z,1011.86
2017-06-13T11:26:40.689Z,1011.86
2017-06-13T11:27:41.947Z,1011.8
2017-06-13T11:28:43.227Z,1011.84
2017-06-13T11:29:44.480Z,1011.82
2017-06-13T11:30:45.724Z,1011.84
2017-06-13T11:31:46.996Z,1011.78
2017-06-13T11:32:48.233Z,1011.81
2017-06-13T11:33:49.549Z,1011.76
2017-06-13T11:34:50.806Z,1011.78
2017-06-13T11:35:52.045Z,1011.74
2017-06-13T11:36:53.322Z,1011.81
2017-06-13T11:37:54.545Z,1011.74
2017-06-13T11:38:55.802Z,1011.78
2017-06-13T11:39:57.185Z,1011.75
2017-06-13T11:40:58.451Z,1011.77
2017-06-13T11:41:59.707Z,1011.8
2017-06-13T11:43:00.968Z,1011.82
2017-06-13T11:44:02.263Z,1011.82
2017-06-13T11:45:03.536Z,1011.84
2017-06-13T11:46:04.829Z,1011.83
2017-06-13T11:47:06.104Z,1011.84
2017-06-13T11:48:07.357Z,1011.82
2017-06-13T11:49:08.611Z,1011.88
2017-06-13T11:50:09.870Z,1011.82
2017-06-13T11:51:11.184Z,1011.8
2017-06-13T11:52:12.458Z,1011.77
2017-06-13T11:53:13.740Z,1011.78
2017-06-13T11:54:14.993Z,1011.8
2017-06-13T11:55:16.222Z,1011.79
2017-06-13T11:56:17.481Z,1011.75
2017-06-13T11:57:18.730Z,1011.78
2017-06-13T11:58:19.983Z,1011.75
2017-06-13T11:59:21.391Z,1011.76
2017-06-13T12:00:22.713Z,1011.79
2017-06-13T12:01:23.960Z,1011.77
2017-06-13T12:02:25.331Z,1011.78
2017-06-13T12:03:26.570Z,1011.73
2017-06-13T12:04:27.811Z,1011.73
2017-06-13T12:05:29.155Z,1011.75
2017-06-13T12:06:30.425Z,1011.75
2017-06-13T12:07:31.671Z,1011.82
2017-06-13T12:08:32.920Z,1011.74
2017-06-13T12:09:34.166Z,1011.76
2017-06-13T12:10:35.426Z,1011.72
2017-06-13T12:11:36.687Z,1011.78
2017-06-13T12:12:37.918Z,1011.8
2017-06-13T12:13:39.169Z,1011.78
2017-06-13T12:14:40.412Z,1011.83
2017-06-13T12:15:41.664Z,1011.85
2017-06-13T12:16:42.941Z,1011.82
2017-06-13T12:17:44.173Z,1011.77
2017-06-13T12:18:45.422Z,1011.77
2017-06-13T12:19:46.701Z,1011.79
2017-06-13T12:20:47.954Z,1011.81
2017-06-13T12:21:49.200Z,1011.8
2017-06-13T12:22:50.559Z,1011.76
2017-06-13T12:23:51.833Z,1011.76